Wheeler Sack Army Air Field
KGTB : now visible

Airfield :











YOU CAN JOIN US ON...

 
LOGIN :

Register | Disclaimer

   EN    FR    IT 

 









Legend :    VFR   Marginal VFR   IFR   Intensive IFR   Very Intensive IFR
Visi :
Ceiling :
>= 8 km
>= 3000ft
5 to 8 km
1000 to 3000 ft
1500m to 5 km
500 to 1000 ft
800 to 1500m
200 to 500 ft
< 800m
< 200 ft
Symbols :   Thunderstorms  Fog  Heavy snow  Heavy precipitations  Wind > 20 kt






- Airport Elevation : 688 ft


KGTB - Wheeler Sack Army Air Field

CURRENT METAR :
  • 220156Z AUTO 23003KT 10SM BKN034 OVC060 M01/M04 A2978 RMK AO2 SLP093 T10151040

EXPIRED METARs :
  • 220056Z AUTO 00000KT 10SM FEW037 SCT046 OVC060 M02/M05 A2979 RMK AO2 SNE2356UPB2356E19 SLP096 P0000 T10181046
  • 220019Z AUTO 00000KT 10SM SCT005 SCT011 BKN030 OVC039 M02/M04 A2979 RMK AO2 UPE19 SLP096
  • 212356Z AUTO 27004KT 9SM -UP BKN006 BKN019 OVC027 M01/M05 A2979 RMK AO2 UPB49 CIG 006V018 SLP096 P0000 60004 T10141049 11012 21023 50000
  • 212349Z AUTO 26004KT 10SM -UP SCT007 BKN018 OVC027 M01/M05 A2979 RMK AO2 UPB49 CIG 018V027 BKN V SCT SLP096
  • 212330Z AUTO 26004KT 10SM FEW007 SCT017 BKN028 OVC046 M01/M05 A2979 RMK AO2 CIG 025 RWY21 SLP096

TAF TAF KGTB
Valid from the 22 at 01:00 until the 23 at 07:00 UTC


220101Z 2201/2307 28009KT 9999 FEW015 BKN040 620407 QNH2978INS
TEMPO 2202/2209 8000 -SN BKN008 620087
BECMG 2212/2213 29012G18KT 9999 BKN020 OVC035 620203 QNH2975INS
BECMG 2217/2218 28012G18KT 9999 BKN040 620403 QNH2975INS
BECMG 2221/2222 27008KT 9999 SCT030 BKN040 620403 QNH2975INS TX02/2220Z TNM09/2201Z
KZBW FIR / North America



MET'MAP, your aeronautical weather chart ! - Copyright ORBIFLY December 2007 - Disclaimer

ORBIFLY MET'MAP TEAM :

Programming & Development : Alexandra Zaïnal
Concept & original design : Baudouin d'Aumeries
Assistance for programming : Marc-Olivier Méhu
Technical & hardware support : Manuel Goepfert

Contact : metmap@orbifly.com




SOURCES & CREDITS :

   NOAA       Earth
Advisory